CDT,Max TemperatureF,Mean TemperatureF,Min TemperatureF,Max Dew PointF,MeanDew PointF,Min DewpointF,Max Humidity, Mean Humidity, Min Humidity, Max Sea Level PressureIn, Mean Sea Level PressureIn, Min Sea Level PressureIn, Max VisibilityMiles, Mean VisibilityMiles, Min VisibilityMiles, Max Wind SpeedMPH, Mean Wind SpeedMPH, Max Gust SpeedMPH,PrecipitationIn, CloudCover, Events, WindDirDegrees
2012-9-1,98,81,65,57,50,43,61,37,15,30.11,30.04,29.97,10,10,10,16,4,17,0.00,1,,95
2012-9-2,98,82,67,59,54,43,69,41,15,30.07,30.00,29.91,10,10,10,18,5,24,0.00,0,,108
2012-9-3,103,86,69,61,56,47,71,40,15,30.02,29.95,29.86,10,10,10,15,6,22,0.00,0,Thunderstorm,115
2012-9-4,103,86,69,58,52,47,62,35,16,29.98,29.92,29.83,10,10,7,18,4,20,0.00,0,,154
2012-9-5,104,86,69,66,53,46,84,35,14,29.98,29.89,29.79,10,10,5,17,6,25,0.13,1,Rain-Thunderstorm,210
2012-9-6,97,82,67,67,61,53,88,56,24,30.04,29.98,29.89,10,10,10,15,8,24,0.02,0,Rain-Thunderstorm,100
2012-9-7,102,84,66,60,54,45,74,42,15,30.02,29.93,29.84,10,10,7,18,4,24,0.00,0,,105
2012-9-8,81,73,64,53,44,38,51,37,23,30.34,30.25,30.06,10,10,5,23,14,34,0.00,3,,30
2012-9-9,84,68,53,47,40,35,65,38,18,30.29,30.22,30.12,10,10,10,10,3,,0.00,0,,27
2012-9-10,94,74,56,44,39,36,57,31,14,30.17,30.09,29.97,10,10,10,10,3,,0.00,0,,85
2012-9-11,99,80,62,44,40,36,44,25,13,30.05,29.98,29.91,10,10,10,16,7,20,0.00,0,,119
2012-9-12,91,80,68,61,49,42,75,36,23,30.07,29.99,29.93,10,10,5,20,6,23,0.02,2,Rain-Thunderstorm,135
2012-9-13,74,66,58,62,57,54,88,76,55,30.39,30.22,29.99,10,9,3,21,13,26,0.02,7,Rain-Thunderstorm,347
2012-9-14,71,64,57,55,52,49,91,73,47,30.39,30.34,30.27,10,9,3,12,4,16,0.01,6,,31
2012-9-15,66,60,55,55,54,52,92,81,61,30.33,30.27,30.19,10,8,2,10,3,,0.16,4,Rain,122
2012-9-16,82,66,51,59,52,46,95,69,27,30.18,30.07,29.96,10,8,0,10,1,,0.20,2,Fog,104
2012-9-17,91,72,52,56,50,42,92,58,19,29.99,29.91,29.82,10,10,10,10,3,,0.00,0,,71
2012-9-18,81,71,62,56,52,46,73,53,35,30.23,30.11,29.91,10,10,10,21,6,28,0.00,1,,22
2012-9-19,90,72,55,56,49,34,89,53,14,30.16,30.10,30.03,10,10,7,9,2,,0.00,0,,137
2012-9-20,96,76,55,53,44,30,79,40,10,30.09,30.02,29.95,10,10,10,17,4,23,0.00,0,,112
2012-9-21,96,77,59,50,42,32,68,36,11,30.05,29.99,29.93,10,10,10,10,5,,0.00,0,,82
2012-9-22,95,74,54,46,39,29,70,35,10,30.15,30.08,30.00,10,10,10,14,5,22,0.00,0,,90
2012-9-23,91,71,51,48,37,31,65,32,12,30.23,30.15,30.09,10,10,10,17,5,24,0.00,0,,120
2012-9-24,94,75,56,53,45,35,76,41,13,30.15,30.05,29.92,10,10,7,16,4,20,0.00,0,,140
2012-9-25,93,76,59,53,46,34,70,41,13,29.99,29.92,29.85,10,10,10,13,6,,0.00,0,,121
2012-9-26,94,77,61,58,51,46,72,47,20,29.98,29.92,29.88,10,10,7,29,5,33,0.00,0,,109
2012-9-27,79,72,66,64,61,52,90,71,47,30.12,30.06,29.98,10,10,3,21,7,36,0.06,5,Rain-Thunderstorm,52
2012-9-28,68,66,63,65,63,61,93,92,89,30.10,30.05,29.99,10,7,2,18,8,23,0.56,7,Rain-Thunderstorm,52
2012-9-29,71,66,61,61,58,54,93,77,56,30.12,30.06,30.00,10,10,7,16,11,22,0.03,7,Rain,345
2012-9-30,81,68,54,62,56,52,94,73,38,30.10,30.04,29.93,10,10,7,29,3,43,0.01,0,Rain-Thunderstorm,214